createdAt,value
2022-08-14T00:00:23.946Z,76.75
2022-08-14T00:02:54.643Z,76.71
2022-08-14T00:05:27.915Z,76.81
2022-08-14T00:07:58.272Z,76.99
2022-08-14T00:10:52.198Z,77.01
2022-08-14T00:13:22.000Z,77.78
2022-08-14T00:15:53.920Z,77.87
2022-08-14T00:18:30.703Z,78.22
2022-08-14T00:21:22.352Z,78.23
2022-08-14T00:24:01.412Z,78.27
2022-08-14T00:26:32.448Z,78.07
2022-08-14T00:29:02.631Z,78.00
2022-08-14T00:31:35.149Z,77.92
2022-08-14T00:34:35.269Z,78.53
2022-08-14T00:37:08.424Z,78.59
2022-08-14T00:39:39.135Z,78.69
2022-08-14T00:42:52.479Z,78.82
2022-08-14T00:45:02.449Z,78.88
2022-08-14T00:47:32.588Z,79.25
2022-08-14T00:50:18.197Z,79.62
2022-08-14T00:52:56.068Z,79.79
2022-08-14T00:55:27.931Z,80.28
2022-08-14T00:58:16.942Z,80.38
2022-08-14T01:00:51.148Z,80.41
2022-08-14T01:03:23.810Z,80.33
2022-08-14T01:05:55.873Z,80.08
2022-08-14T01:08:51.475Z,80.07
2022-08-14T01:11:23.137Z,80.31
2022-08-14T01:14:01.078Z,80.58
2022-08-14T01:16:33.369Z,80.77
2022-08-14T01:19:19.771Z,80.48
2022-08-14T01:21:53.824Z,80.46
2022-08-14T01:24:30.896Z,80.60
2022-08-14T01:27:05.464Z,80.64
2022-08-14T01:30:03.158Z,80.69
2022-08-14T01:32:29.871Z,81.09
2022-08-14T01:35:18.267Z,80.68
2022-08-14T01:37:56.216Z,80.90
2022-08-14T01:40:33.298Z,80.90
2022-08-14T01:43:18.892Z,81.07
2022-08-14T01:45:57.641Z,80.87
2022-08-14T01:48:37.597Z,80.68
2022-08-14T01:51:19.063Z,80.39
2022-08-14T01:53:57.614Z,81.00
2022-08-14T01:56:39.319Z,80.92
2022-08-14T01:59:18.127Z,81.40
2022-08-14T02:01:58.677Z,81.88
2022-08-14T02:04:54.703Z,81.94
2022-08-14T02:07:34.554Z,81.86
2022-08-14T02:10:18.060Z,81.65
2022-08-14T02:12:57.130Z,81.33
2022-08-14T02:15:28.398Z,81.62
2022-08-14T02:18:01.632Z,81.71
2022-08-14T02:20:34.182Z,81.77
2022-08-14T02:23:06.452Z,81.66
2022-08-14T02:25:41.430Z,81.33
2022-08-14T02:28:23.365Z,81.68
2022-08-14T02:31:02.916Z,81.58
2022-08-14T02:33:33.761Z,81.97
2022-08-14T02:37:04.988Z,81.98
2022-08-14T02:39:01.152Z,81.80
2022-08-14T02:41:38.999Z,81.84
2022-08-14T02:44:14.160Z,82.10
2022-08-14T02:46:45.366Z,82.42
2022-08-14T02:49:27.460Z,82.69
2022-08-14T02:52:56.072Z,82.91
2022-08-14T02:54:57.230Z,82.61
2022-08-14T02:57:39.806Z,81.87
2022-08-14T03:00:18.761Z,82.14
2022-08-14T03:02:58.572Z,82.23
2022-08-14T03:05:36.213Z,82.37
2022-08-14T03:08:09.758Z,82.02
2022-08-14T03:10:48.494Z,81.75
2022-08-14T03:13:22.845Z,81.36
2022-08-14T03:15:57.873Z,81.15
2022-08-14T03:18:32.725Z,81.28
2022-08-14T03:21:11.333Z,81.55
2022-08-14T03:23:42.272Z,81.91
2022-08-14T03:26:18.161Z,82.04
2022-08-14T03:28:54.322Z,81.58
2022-08-14T03:31:27.914Z,81.64
2022-08-14T03:34:01.922Z,81.79
2022-08-14T03:37:38.575Z,82.15
2022-08-14T03:39:27.617Z,82.15
2022-08-14T03:42:01.656Z,82.28
2022-08-14T03:45:25.218Z,82.04
2022-08-14T03:47:46.620Z,82.63
2022-08-14T03:50:27.691Z,82.48
2022-08-14T03:53:03.362Z,82.49
2022-08-14T03:55:34.207Z,82.43
2022-08-14T03:58:04.319Z,82.32
2022-08-14T04:00:43.426Z,82.33
2022-08-14T04:03:24.143Z,81.99
2022-08-14T04:05:55.249Z,81.60
2022-08-14T04:08:30.550Z,81.56
2022-08-14T04:11:02.785Z,81.53
2022-08-14T04:13:34.876Z,81.29
2022-08-14T04:16:12.731Z,81.50
2022-08-14T04:18:45.464Z,81.91
2022-08-14T04:21:18.171Z,82.05
2022-08-14T04:23:57.247Z,82.28
2022-08-14T04:26:42.041Z,82.22
2022-08-14T04:29:15.207Z,82.37
2022-08-14T04:33:01.662Z,82.30
2022-08-14T04:34:42.853Z,82.72
2022-08-14T04:37:36.289Z,82.84
2022-08-14T04:40:20.368Z,82.98
2022-08-14T04:43:02.961Z,83.23
2022-08-14T04:45:41.002Z,82.75
2022-08-14T04:48:40.058Z,81.81
2022-08-14T04:51:09.192Z,81.63
2022-08-14T04:53:44.678Z,81.36
2022-08-14T04:56:30.926Z,80.81
2022-08-14T04:59:11.162Z,80.74
2022-08-14T05:01:49.092Z,80.95
2022-08-14T05:04:25.275Z,81.06
2022-08-14T05:06:57.681Z,81.16
2022-08-14T05:09:28.668Z,81.62
2022-08-14T05:12:39.716Z,81.34
2022-08-14T05:14:55.267Z,81.21
2022-08-14T05:17:31.862Z,80.82
2022-08-14T05:21:04.879Z,80.66
2022-08-14T05:23:08.057Z,80.72
2022-08-14T05:25:41.666Z,80.47
2022-08-14T05:28:18.087Z,80.30
2022-08-14T05:30:50.070Z,80.31
2022-08-14T05:33:24.465Z,79.85
2022-08-14T05:36:01.436Z,79.42
2022-08-14T05:38:35.622Z,79.37
2022-08-14T05:41:08.756Z,79.38
2022-08-14T05:43:41.126Z,78.60
2022-08-14T05:46:15.681Z,79.26
2022-08-14T05:48:46.116Z,79.03
2022-08-14T05:51:19.496Z,79.25
2022-08-14T05:54:00.143Z,78.74
2022-08-14T05:56:36.879Z,78.25
2022-08-14T05:59:08.347Z,77.68
2022-08-14T06:01:38.671Z,77.43
2022-08-14T06:04:08.869Z,76.74
2022-08-14T06:06:46.400Z,76.21
2022-08-14T06:09:17.478Z,75.64
2022-08-14T06:11:49.703Z,74.69
2022-08-14T06:14:23.955Z,73.65
2022-08-14T06:16:54.425Z,73.52
2022-08-14T06:19:25.007Z,73.25
2022-08-14T06:21:59.411Z,71.65
2022-08-14T06:24:34.997Z,71.45
2022-08-14T06:27:10.084Z,70.48
2022-08-14T06:29:42.457Z,69.65
2022-08-14T06:32:37.808Z,69.85
2022-08-14T06:35:12.291Z,69.04
2022-08-14T06:37:48.975Z,67.71
2022-08-14T06:40:27.925Z,67.00
2022-08-14T06:43:00.072Z,66.26
2022-08-14T06:45:31.618Z,66.05
2022-08-14T06:48:02.459Z,64.53
2022-08-14T06:50:36.240Z,64.21
2022-08-14T06:53:09.532Z,63.54
2022-08-14T06:55:57.892Z,63.09
2022-08-14T06:58:30.924Z,62.48
2022-08-14T07:01:14.482Z,61.71
2022-08-14T07:03:58.381Z,61.09
2022-08-14T07:06:46.642Z,60.93
2022-08-14T07:09:23.070Z,60.26
2022-08-14T07:11:53.851Z,59.58
2022-08-14T07:14:24.029Z,59.22
2022-08-14T07:16:54.207Z,58.00
2022-08-14T07:19:24.353Z,57.50
2022-08-14T07:21:55.141Z,57.09
2022-08-14T07:24:31.780Z,56.65
2022-08-14T07:27:02.049Z,56.05
2022-08-14T07:29:32.255Z,55.95
2022-08-14T07:32:03.624Z,55.26
2022-08-14T07:34:40.575Z,55.00
2022-08-14T07:37:11.684Z,54.47
2022-08-14T07:39:44.481Z,54.07
2022-08-14T07:42:15.316Z,53.67
2022-08-14T07:44:52.877Z,52.59
2022-08-14T07:47:26.362Z,52.51
2022-08-14T07:50:05.090Z,51.63
2022-08-14T07:52:35.233Z,51.03
2022-08-14T07:55:12.048Z,50.63
2022-08-14T07:57:45.036Z,50.94
2022-08-14T08:00:31.581Z,51.09
2022-08-14T08:03:04.173Z,51.33
2022-08-14T08:05:35.750Z,50.77
2022-08-14T08:08:27.456Z,50.82
2022-08-14T08:11:03.745Z,50.60
2022-08-14T08:13:40.090Z,49.62
2022-08-14T08:16:11.262Z,48.41
2022-08-14T08:18:42.223Z,47.23
2022-08-14T08:21:13.579Z,45.70
2022-08-14T08:23:51.104Z,44.98
2022-08-14T08:26:24.392Z,43.82
2022-08-14T08:28:59.706Z,42.80
2022-08-14T08:31:33.077Z,41.30
2022-08-14T08:34:18.160Z,39.21
2022-08-14T08:36:48.932Z,37.63
2022-08-14T08:39:22.674Z,36.40
2022-08-14T08:41:56.003Z,34.68
2022-08-14T08:44:34.512Z,33.92
2022-08-14T08:47:08.103Z,32.82
2022-08-14T08:49:48.095Z,30.95
2022-08-14T08:52:25.125Z,30.48
2022-08-14T08:55:04.630Z,30.00
2022-08-14T08:57:39.902Z,29.32
2022-08-14T09:00:25.451Z,29.32
2022-08-14T09:02:59.395Z,28.82
2022-08-14T09:05:30.197Z,28.50
2022-08-14T09:08:21.746Z,27.73
2022-08-14T09:11:19.772Z,27.38
2022-08-14T09:13:56.785Z,27.58
2022-08-14T09:16:28.580Z,27.12
2022-08-14T09:18:59.023Z,27.30
2022-08-14T09:21:31.072Z,28.04
2022-08-14T09:24:29.388Z,28.45
2022-08-14T09:26:53.443Z,28.00
2022-08-14T09:29:28.858Z,27.81
2022-08-14T09:32:26.944Z,27.33
2022-08-14T09:35:08.617Z,27.15
2022-08-14T09:37:53.917Z,26.45
2022-08-14T09:40:42.300Z,25.59
2022-08-14T09:43:27.007Z,25.52
2022-08-14T09:46:02.775Z,25.38
2022-08-14T09:48:33.137Z,25.14
2022-08-14T09:54:19.134Z,24.67
2022-08-14T09:56:56.611Z,24.49
2022-08-14T09:59:32.097Z,23.96
2022-08-14T10:02:07.300Z,24.13
2022-08-14T10:04:46.170Z,23.93
2022-08-14T10:07:20.857Z,23.51
2022-08-14T10:09:59.837Z,23.40
2022-08-14T10:12:54.668Z,23.53
2022-08-14T10:15:30.083Z,23.75
2022-08-14T10:18:17.815Z,23.53
2022-08-14T10:20:57.882Z,22.17
2022-08-14T10:23:35.015Z,24.17
2022-08-14T10:26:09.925Z,23.97
2022-08-14T10:29:19.531Z,24.83
2022-08-14T10:31:46.460Z,25.52
2022-08-14T10:34:35.802Z,24.02
2022-08-14T10:37:14.436Z,25.34
2022-08-14T10:40:01.979Z,24.95
2022-08-14T10:42:39.724Z,25.04
2022-08-14T10:45:23.269Z,24.83
2022-08-14T10:48:08.774Z,24.98
2022-08-14T10:50:51.561Z,24.80
2022-08-14T10:53:35.129Z,25.74
2022-08-14T10:56:21.734Z,26.67
2022-08-14T10:59:05.225Z,25.14
2022-08-14T11:01:38.511Z,24.96
2022-08-14T11:04:30.759Z,24.96
2022-08-14T11:07:05.898Z,24.21
2022-08-14T11:09:36.889Z,23.70
2022-08-14T11:12:33.249Z,23.68
2022-08-14T11:15:03.063Z,24.04
2022-08-14T11:17:36.256Z,24.09
2022-08-14T11:20:14.108Z,24.19
2022-08-14T11:22:57.795Z,23.52
2022-08-14T11:25:41.336Z,22.80
2022-08-14T11:28:19.426Z,22.35
2022-08-14T11:30:53.822Z,22.50
2022-08-14T11:33:32.517Z,21.77
2022-08-14T11:36:17.795Z,21.48
2022-08-14T11:38:51.543Z,20.90
2022-08-14T11:41:27.233Z,20.36
2022-08-14T11:43:58.341Z,20.04
2022-08-14T11:46:37.533Z,20.15
2022-08-14T11:49:09.486Z,20.14
2022-08-14T11:51:54.397Z,20.21
2022-08-14T11:54:33.522Z,19.84
2022-08-14T11:57:05.940Z,19.44
2022-08-14T11:59:43.908Z,18.93
2022-08-14T12:02:38.810Z,18.92
2022-08-14T12:05:09.278Z,18.85
2022-08-14T12:07:51.251Z,18.71
2022-08-14T12:10:27.351Z,18.41
2022-08-14T12:13:17.646Z,18.02
2022-08-14T12:15:51.477Z,17.89
2022-08-14T12:18:34.507Z,18.89
2022-08-14T12:21:19.262Z,18.33
2022-08-14T12:24:03.174Z,18.13
2022-08-14T12:26:40.618Z,18.34
2022-08-14T12:29:14.563Z,17.98
2022-08-14T12:31:50.391Z,18.05
2022-08-14T12:34:24.228Z,18.83
2022-08-14T12:37:06.943Z,18.72
2022-08-14T12:39:39.803Z,17.86
2022-08-14T12:42:27.262Z,18.30
2022-08-14T12:45:05.164Z,18.14
2022-08-14T12:47:35.670Z,18.54
2022-08-14T12:50:07.419Z,18.86
2022-08-14T12:52:54.001Z,19.79
2022-08-14T12:55:44.131Z,18.78
2022-08-14T12:58:35.180Z,18.72
2022-08-14T13:01:23.257Z,20.30
2022-08-14T13:03:55.547Z,20.94
2022-08-14T13:06:29.319Z,22.04
2022-08-14T13:09:01.043Z,23.64
2022-08-14T13:11:41.393Z,24.93
2022-08-14T13:14:26.088Z,25.87
2022-08-14T13:17:01.892Z,26.91
2022-08-14T13:19:36.737Z,27.04
2022-08-14T13:22:10.195Z,27.83
2022-08-14T13:24:51.247Z,28.29
2022-08-14T13:27:25.557Z,29.02
2022-08-14T13:30:03.167Z,28.27
2022-08-14T13:32:45.044Z,26.47
2022-08-14T13:35:18.571Z,24.57
2022-08-14T13:37:52.239Z,24.61
2022-08-14T13:40:27.779Z,24.49
2022-08-14T13:42:59.448Z,24.80
2022-08-14T13:45:59.883Z,25.03
2022-08-14T13:48:32.633Z,25.22
2022-08-14T13:51:10.842Z,24.51
2022-08-14T13:54:06.896Z,23.53
2022-08-14T13:56:43.208Z,22.98
2022-08-14T13:59:20.217Z,22.70
2022-08-14T14:02:10.233Z,21.64
2022-08-14T14:04:49.264Z,22.43
2022-08-14T14:07:24.239Z,23.07
2022-08-14T14:10:06.903Z,24.42
2022-08-14T14:12:41.437Z,24.89
2022-08-14T14:15:15.075Z,24.58
2022-08-14T14:17:51.461Z,23.17
2022-08-14T14:20:35.327Z,24.55
2022-08-14T14:23:11.713Z,25.44
2022-08-14T14:25:51.064Z,26.49
2022-08-14T14:28:34.437Z,27.42
2022-08-14T14:31:08.698Z,28.50
2022-08-14T14:33:48.892Z,28.76
2022-08-14T14:36:26.124Z,28.92
2022-08-14T14:38:58.925Z,26.63
2022-08-14T14:41:37.548Z,25.25
2022-08-14T14:44:16.585Z,23.68
2022-08-14T14:46:50.137Z,22.85
2022-08-14T14:49:32.030Z,22.31
2022-08-14T14:52:23.126Z,22.83
2022-08-14T14:54:58.761Z,24.52
2022-08-14T14:57:34.900Z,24.87
2022-08-14T15:00:12.758Z,25.45
2022-08-14T15:02:46.567Z,25.23
2022-08-14T15:05:20.890Z,25.06
2022-08-14T15:07:54.222Z,25.03
2022-08-14T15:10:31.738Z,25.38
2022-08-14T15:13:06.727Z,26.00
2022-08-14T15:15:37.868Z,26.51
2022-08-14T15:18:36.888Z,26.99
2022-08-14T15:21:03.873Z,27.12
2022-08-14T15:23:44.541Z,28.23
2022-08-14T15:26:23.440Z,28.58
2022-08-14T15:29:05.051Z,29.24
2022-08-14T15:31:37.499Z,29.47
2022-08-14T15:34:40.998Z,30.09
2022-08-14T15:37:10.954Z,30.53
2022-08-14T15:39:43.653Z,30.21
2022-08-14T15:42:16.690Z,30.33
2022-08-14T15:44:58.482Z,30.68
2022-08-14T15:47:35.042Z,31.00
2022-08-14T15:50:13.082Z,30.98
2022-08-14T15:52:46.244Z,31.05
2022-08-14T15:55:18.185Z,31.25
2022-08-14T15:58:02.273Z,30.24
2022-08-14T16:00:49.786Z,30.73
2022-08-14T16:03:24.907Z,30.81
2022-08-14T16:05:58.671Z,30.99
2022-08-14T16:08:31.641Z,31.25
2022-08-14T16:11:05.608Z,31.72
2022-08-14T16:13:43.305Z,31.90
2022-08-14T16:16:49.435Z,32.12
2022-08-14T16:19:12.800Z,31.59
2022-08-14T16:22:01.561Z,32.41
2022-08-14T16:25:01.968Z,32.88
2022-08-14T16:27:38.996Z,33.19
2022-08-14T16:30:24.612Z,33.67
2022-08-14T16:32:56.793Z,33.81
2022-08-14T16:35:42.652Z,34.02
2022-08-14T16:38:46.123Z,33.93
2022-08-14T16:41:26.326Z,34.77
2022-08-14T16:44:01.423Z,34.88
2022-08-14T16:46:38.250Z,34.81
2022-08-14T16:49:16.221Z,34.43
2022-08-14T16:51:51.304Z,34.19
2022-08-14T16:54:34.951Z,34.79
2022-08-14T16:57:24.409Z,35.41
2022-08-14T16:59:59.275Z,35.31
2022-08-14T17:02:39.128Z,35.15
2022-08-14T17:05:24.945Z,35.43
2022-08-14T17:08:33.052Z,35.76
2022-08-14T17:11:12.677Z,35.81
2022-08-14T17:14:00.553Z,35.84
2022-08-14T17:16:37.656Z,36.35
2022-08-14T17:19:13.637Z,36.14
2022-08-14T17:21:46.937Z,36.74
2022-08-14T17:24:56.644Z,36.84
2022-08-14T17:27:11.574Z,37.19
2022-08-14T17:29:57.723Z,37.37
2022-08-14T17:32:56.749Z,37.67
2022-08-14T17:35:58.810Z,37.92
2022-08-14T17:38:38.812Z,38.63
2022-08-14T17:41:33.005Z,38.82
2022-08-14T17:44:21.929Z,38.97
2022-08-14T17:47:10.188Z,39.28
2022-08-14T17:49:52.257Z,39.60
2022-08-14T17:52:34.735Z,39.78
2022-08-14T17:55:09.973Z,39.84
2022-08-14T17:57:45.168Z,40.47
2022-08-14T18:00:19.488Z,40.52
2022-08-14T18:02:54.079Z,40.95
2022-08-14T18:06:09.915Z,40.55
2022-08-14T18:08:33.334Z,41.34
2022-08-14T18:11:15.253Z,41.68
2022-08-14T18:13:51.238Z,41.81
2022-08-14T18:16:22.981Z,41.68
2022-08-14T18:18:56.014Z,42.23
2022-08-14T18:21:41.988Z,42.65
2022-08-14T18:24:28.002Z,43.01
2022-08-14T18:27:09.426Z,42.89
2022-08-14T18:29:54.649Z,43.09
2022-08-14T18:32:47.170Z,43.36
2022-08-14T18:35:45.915Z,43.75
2022-08-14T18:38:45.902Z,43.79
2022-08-14T18:41:36.802Z,44.07
2022-08-14T18:44:10.548Z,44.13
2022-08-14T18:47:25.423Z,44.41
2022-08-14T18:50:27.664Z,45.04
2022-08-14T18:53:12.945Z,44.85
2022-08-14T18:56:00.038Z,44.87
2022-08-14T18:58:49.334Z,44.96
2022-08-14T19:01:33.398Z,45.38
2022-08-14T19:04:04.680Z,45.37
2022-08-14T19:06:55.893Z,45.71
2022-08-14T19:09:58.000Z,46.02
2022-08-14T19:13:11.981Z,46.25
2022-08-14T19:15:55.956Z,46.15
2022-08-14T19:18:29.637Z,46.50
2022-08-14T19:21:02.648Z,46.53
2022-08-14T19:23:59.340Z,46.83
2022-08-14T19:26:37.006Z,47.05
2022-08-14T19:29:37.755Z,47.10
2022-08-14T19:32:41.913Z,47.55
2022-08-14T19:35:59.925Z,47.71
2022-08-14T19:38:54.681Z,47.90
2022-08-14T19:41:34.134Z,48.06
2022-08-14T19:44:16.469Z,48.01
2022-08-14T19:47:01.340Z,48.04
2022-08-14T19:50:08.042Z,48.42
2022-08-14T19:52:37.318Z,48.38
2022-08-14T19:55:18.986Z,48.83
2022-08-14T19:57:58.027Z,48.32
2022-08-14T20:00:30.607Z,48.69
2022-08-14T20:03:11.686Z,48.54
2022-08-14T20:05:46.753Z,48.46
2022-08-14T20:11:00.609Z,48.34
2022-08-14T20:12:00.481Z,48.46
2022-08-14T20:14:20.826Z,48.50
2022-08-14T20:17:06.248Z,48.70
2022-08-14T20:19:41.800Z,48.72
2022-08-14T20:22:35.403Z,49.27
2022-08-14T20:25:18.596Z,49.03
2022-08-14T20:27:59.665Z,49.49
2022-08-14T20:30:35.419Z,49.54
2022-08-14T20:33:11.475Z,49.50
2022-08-14T20:35:49.240Z,49.43
2022-08-14T20:38:31.046Z,49.59
2022-08-14T20:41:09.688Z,49.78
2022-08-14T20:43:55.962Z,49.81
2022-08-14T20:46:31.019Z,49.41
2022-08-14T20:49:05.187Z,49.71
2022-08-14T20:51:47.406Z,49.69
2022-08-14T20:54:34.505Z,50.16
2022-08-14T20:57:14.170Z,50.49
2022-08-14T20:59:47.084Z,50.60
2022-08-14T21:02:46.183Z,50.90
2022-08-14T21:05:34.007Z,50.78
2022-08-14T21:08:08.149Z,50.79
2022-08-14T21:10:44.014Z,51.02
2022-08-14T21:14:09.051Z,50.59
2022-08-14T21:16:25.969Z,50.96
2022-08-14T21:19:03.929Z,50.93
2022-08-14T21:21:40.708Z,51.57
2022-08-14T21:24:39.771Z,51.25
2022-08-14T21:27:12.621Z,51.01
2022-08-14T21:29:53.816Z,51.02
2022-08-14T21:32:46.998Z,51.14
2022-08-14T21:35:24.501Z,51.24
2022-08-14T21:37:55.657Z,50.96
2022-08-14T21:40:41.642Z,51.04
2022-08-14T21:43:18.462Z,51.49
2022-08-14T21:45:54.086Z,51.74
2022-08-14T21:48:29.508Z,51.92
2022-08-14T21:51:55.318Z,51.73
2022-08-14T21:54:01.356Z,52.08
2022-08-14T21:56:40.906Z,52.48
2022-08-14T21:59:29.781Z,52.31
2022-08-14T22:02:03.619Z,52.80
2022-08-14T22:04:40.780Z,52.77
2022-08-14T22:07:18.258Z,52.50
2022-08-14T22:09:54.799Z,52.95
2022-08-14T22:12:58.608Z,52.64
2022-08-14T22:15:19.855Z,52.43
2022-08-14T22:17:54.782Z,52.72
2022-08-14T22:20:28.572Z,52.71
2022-08-14T22:23:12.691Z,52.46
2022-08-14T22:25:46.728Z,53.34
2022-08-14T22:28:25.445Z,53.88
2022-08-14T22:30:57.621Z,53.93
2022-08-14T22:33:31.161Z,53.93
2022-08-14T22:36:25.283Z,54.40
2022-08-14T22:38:59.208Z,54.22
2022-08-14T22:41:36.947Z,54.65
2022-08-14T22:44:17.917Z,54.96
2022-08-14T22:46:48.868Z,55.02
2022-08-14T22:50:31.239Z,55.32
2022-08-14T22:52:31.772Z,55.54
2022-08-14T22:55:07.637Z,55.66
2022-08-14T22:57:42.113Z,55.96
2022-08-14T23:00:25.369Z,56.28
2022-08-14T23:03:05.092Z,56.46
2022-08-14T23:05:39.796Z,57.08
2022-08-14T23:08:57.536Z,57.38
2022-08-14T23:11:15.490Z,57.65
2022-08-14T23:13:48.869Z,57.28
2022-08-14T23:16:21.208Z,57.42
2022-08-14T23:18:54.237Z,57.13
2022-08-14T23:21:28.672Z,57.33
2022-08-14T23:24:00.849Z,57.05
2022-08-14T23:26:48.590Z,57.24
2022-08-14T23:29:22.665Z,57.57
2022-08-14T23:31:53.019Z,57.42
2022-08-14T23:34:25.744Z,58.02
2022-08-14T23:37:03.881Z,57.96
2022-08-14T23:39:39.107Z,58.23
2022-08-14T23:42:18.000Z,58.11
2022-08-14T23:44:49.317Z,58.32
2022-08-14T23:47:26.174Z,58.40
2022-08-14T23:50:04.042Z,58.91
2022-08-14T23:52:55.558Z,58.59
2022-08-14T23:55:35.238Z,59.07
2022-08-14T23:58:08.030Z,58.85
